Nummela Airport

EFNU · Uusimaa, Finlandia

METAR pasados EFNU · Nummela Airport

A continuación puedes ver los METAR de los últimos días. Selecciona un año para ver los METAR más antiguos, desde el año 2007 en adelante.

23 de mayo de 2024

Hora Código Tiempo Temp. Visibilidad Cielo nuboso Viento METAR/SPECI
07:50
V
16 °C 10 km+ - 120° 120° 5 kt METAR EFHK 230450Z 12005KT 080V170 CAVOK 16/06 Q1027 NOSIG
07:20
V
14 °C 10 km+ - 070° 070° 4 kt METAR EFHK 230420Z 07004KT CAVOK 14/05 Q1027 NOSIG
06:50
V
13 °C 10 km+ - 080° 080° 3 kt METAR EFHK 230350Z 08003KT 050V140 CAVOK 13/04 Q1026 NOSIG
06:20
V
12 °C 10 km+ - 070° 070° 4 kt METAR EFHK 230320Z 07004KT CAVOK 12/03 Q1027 NOSIG
05:50
V
11 °C 10 km+ - 070° 070° 3 kt METAR EFHK 230250Z 07003KT 030V110 CAVOK 11/03 Q1026 NOSIG
05:20
V
8 °C 10 km+ - 050° 050° 3 kt METAR EFHK 230220Z 05003KT CAVOK 08/04 Q1026 NOSIG
04:50
V
6 °C 10 km+ - Var Var 1 kt METAR EFHK 230150Z VRB01KT CAVOK 06/03 Q1026 NOSIG
04:20
V
6 °C 10 km+ - 050° 050° 4 kt METAR EFHK 230120Z 05004KT 360V120 CAVOK 06/03 Q1026 NOSIG
03:50
V
6 °C 10 km+ - 360° 360° 0 kt METAR EFHK 230050Z 00000KT CAVOK 06/03 Q1026 NOSIG
03:20
V
7 °C 10 km+ - 030° 030° 3 kt METAR EFHK 230020Z 03003KT CAVOK 07/03 Q1026 NOSIG
02:50
V
9 °C 10 km+ - 360° 360° 0 kt METAR EFHK 222350Z 00000KT CAVOK 09/03 Q1026 NOSIG
02:20
V
10 °C 10 km+ - 060° 060° 5 kt METAR EFHK 222320Z 06005KT CAVOK 10/02 Q1026 NOSIG
01:50
V
9 °C 10 km+ - 050° 050° 4 kt METAR EFHK 222250Z 05004KT CAVOK 09/03 Q1026 NOSIG
01:20
V
10 °C 10 km+ - 050° 050° 5 kt METAR EFHK 222220Z 05005KT 040V100 CAVOK 10/03 Q1026 NOSIG
00:50
V
9 °C 10 km+ - 060° 060° 5 kt METAR EFHK 222150Z 06005KT CAVOK 09/03 Q1025 NOSIG
00:20
V
10 °C 10 km+ - 040° 040° 5 kt METAR EFHK 222120Z 04005KT 030V180 CAVOK 10/04 Q1025 NOSIG

22 de mayo de 2024

Hora Código Tiempo Temp. Visibilidad Cielo nuboso Viento METAR/SPECI
23:50
V
10 °C 10 km+ - 060° 060° 4 kt METAR EFHK 222050Z 06004KT 030V130 CAVOK 10/04 Q1025 NOSIG
23:20
V
10 °C 10 km+ - 080° 080° 3 kt METAR EFHK 222020Z 08003KT 050V130 CAVOK 10/03 Q1025 NOSIG
22:50
V
11 °C 10 km+ - 080° 080° 3 kt METAR EFHK 221950Z 08003KT 040V110 CAVOK 11/04 Q1025 NOSIG
22:20
V
12 °C 10 km+ - 080° 080° 3 kt METAR EFHK 221920Z 08003KT 040V110 CAVOK 12/04 Q1025 NOSIG
21:50
V
15 °C 10 km+ - 120° 120° 4 kt METAR EFHK 221850Z 12004KT 090V160 CAVOK 15/03 Q1025 NOSIG
21:20
V
17 °C 10 km+ - 140° 140° 6 kt METAR EFHK 221820Z 14006KT CAVOK 17/00 Q1025 NOSIG
20:50
V
18 °C 10 km+ - 120° 120° 5 kt METAR EFHK 221750Z 12005KT 100V170 CAVOK 18/01 Q1024 NOSIG
20:20
V
19 °C 10 km+ - 120° 120° 6 kt METAR EFHK 221720Z 12006KT 100V170 CAVOK 19/01 Q1024 NOSIG
19:50
V
19 °C 10 km+ - 120° 120° 5 kt METAR EFHK 221650Z 12005KT 080V180 CAVOK 19/01 Q1024 NOSIG
19:20
V
19 °C 10 km+ - 140° 140° 6 kt METAR EFHK 221620Z 14006KT 090V190 CAVOK 19/01 Q1024 NOSIG
18:50
V
20 °C 10 km+ - 150° 150° 7 kt METAR EFHK 221550Z 15007KT 120V190 CAVOK 20/00 Q1024 NOSIG
18:20
V
20 °C 10 km+ - 160° 160° 8 kt METAR EFHK 221520Z 16008KT 130V190 CAVOK 20/00 Q1025 NOSIG
17:50
V
19 °C 10 km+ - 150° 150° 8 kt METAR EFHK 221450Z 15008KT 100V200 CAVOK 19/M00 Q1025 NOSIG
17:20
V
19 °C 10 km+ - 150° 150° 9 kt METAR EFHK 221420Z 15009KT 110V190 CAVOK 19/M00 Q1025 NOSIG
16:50
V
20 °C 10 km+ - 180° 180° 10 kt METAR EFHK 221350Z 18010KT 140V200 CAVOK 20/M00 Q1025 NOSIG
16:20
V
20 °C 10 km+ - 170° 170° 9 kt METAR EFHK 221320Z 17009KT 140V200 CAVOK 20/M00 Q1025 NOSIG
15:50
V
20 °C 10 km+ - 180° 180° 9 kt METAR EFHK 221250Z 18009KT 130V220 CAVOK 20/00 Q1025 NOSIG
15:20
V
20 °C 10 km+ - 140° 140° 8 kt METAR EFHK 221220Z 14008KT 100V210 CAVOK 20/01 Q1026 NOSIG
14:50
V
20 °C 10 km+ - Var Var 7 kt METAR EFHK 221150Z VRB07KT CAVOK 20/M00 Q1026 NOSIG
14:20
V
20 °C 10 km+ - 170° 170° 7 kt METAR EFHK 221120Z 17007KT 100V210 CAVOK 20/M00 Q1026 NOSIG
13:50
V
19 °C 10 km+ - 150° 150° 7 kt METAR EFHK 221050Z 15007KT 090V200 CAVOK 19/M01 Q1026 NOSIG
13:20
V
19 °C 10 km+ - 140° 140° 7 kt METAR EFHK 221020Z 14007KT 100V180 CAVOK 19/M00 Q1026 NOSIG
12:50
V
19 °C 10 km+ - 190° 190° 6 kt METAR EFHK 220950Z 19006KT 150V240 CAVOK 19/M01 Q1026 NOSIG
12:20
V
19 °C 10 km+ - 150° 150° 6 kt METAR EFHK 220920Z 15006KT 110V220 CAVOK 19/M01 Q1026 NOSIG
11:50
V
19 °C 10 km+ - 150° 150° 7 kt METAR EFHK 220850Z 15007KT 120V190 CAVOK 19/00 Q1027 NOSIG
11:20
V
18 °C 10 km+ - 150° 150° 6 kt METAR EFHK 220820Z 15006KT 080V210 CAVOK 18/M00 Q1027 NOSIG
10:50
V
17 °C 10 km+ - 110° 110° 6 kt METAR EFHK 220750Z 11006KT 060V170 CAVOK 17/M01 Q1026 NOSIG
10:20
V
17 °C 10 km+ - 110° 110° 5 kt METAR EFHK 220720Z 11005KT 060V160 CAVOK 17/00 Q1027 NOSIG
09:50
V
18 °C 10 km+ - 150° 150° 5 kt METAR EFHK 220650Z 15005KT 100V190 CAVOK 18/02 Q1027 NOSIG
09:20
V
16 °C 10 km+ - 120° 120° 5 kt METAR EFHK 220620Z 12005KT 090V200 CAVOK 16/01 Q1027 NOSIG
08:50
V
15 °C 10 km+ - Var Var 4 kt METAR EFHK 220550Z VRB04KT CAVOK 15/02 Q1026 NOSIG
08:20
V
15 °C 10 km+ - 110° 110° 3 kt METAR EFHK 220520Z 11003KT 060V190 CAVOK 15/02 Q1026 NOSIG
07:50
V
14 °C 10 km+ - 120° 120° 5 kt METAR EFHK 220450Z 12005KT 070V150 CAVOK 14/02 Q1026 NOSIG
07:20
V
13 °C 10 km+ - Var Var 2 kt METAR EFHK 220420Z VRB02KT CAVOK 13/01 Q1026 NOSIG
06:50
V
11 °C 10 km+ - Var Var 3 kt METAR EFHK 220350Z VRB03KT CAVOK 11/04 Q1026 NOSIG
06:20
V
7 °C 10 km+ - Var Var 1 kt METAR EFHK 220320Z VRB01KT CAVOK 07/04 Q1026 NOSIG
05:50
V
4 °C 10 km+ - 050° 050° 2 kt METAR EFHK 220250Z 05002KT 9999 2000NE BCFG FEW001 04/02 Q1026 NOSIG
05:20
V
4 °C 10 km+ - Var Var 2 kt METAR EFHK 220220Z VRB02KT CAVOK 04/02 Q1026 NOSIG
04:50
V
4 °C 10 km+ - 360° 360° 3 kt METAR EFHK 220150Z 36003KT 320V080 CAVOK 04/01 Q1026 NOSIG
04:20
V
4 °C 10 km+ - 360° 360° 0 kt METAR EFHK 220120Z 00000KT CAVOK 04/01 Q1026 NOSIG
03:50
V
4 °C 10 km+ - 360° 360° 0 kt METAR EFHK 220050Z 00000KT CAVOK 04/01 Q1025 NOSIG
03:20
V
3 °C 10 km+ - 360° 360° 3 kt METAR EFHK 220020Z 36003KT 320V030 CAVOK 03/01 Q1025 NOSIG
02:50
V
4 °C 10 km+ - Var Var 2 kt METAR EFHK 212350Z VRB02KT CAVOK 04/01 Q1025 NOSIG
02:20
V
4 °C 10 km+ - Var Var 1 kt METAR EFHK 212320Z VRB01KT CAVOK 04/01 Q1025 NOSIG
01:50
V
5 °C 10 km+ - 360° 360° 0 kt METAR EFHK 212250Z 00000KT CAVOK 05/01 Q1025 NOSIG
01:20
V
5 °C 10 km+ - 350° 350° 2 kt METAR EFHK 212220Z 35002KT CAVOK 05/01 Q1025 NOSIG
00:50
V
5 °C 10 km+ - Var Var 1 kt METAR EFHK 212150Z VRB01KT CAVOK 05/01 Q1025 NOSIG
00:20
V
6 °C 10 km+ - 360° 360° 0 kt METAR EFHK 212120Z 00000KT CAVOK 06/02 Q1025 NOSIG

21 de mayo de 2024

Hora Código Tiempo Temp. Visibilidad Cielo nuboso Viento METAR/SPECI
23:50
V
7 °C 10 km+ - 360° 360° 0 kt METAR EFHK 212050Z 00000KT CAVOK 07/02 Q1025 NOSIG
23:20
V
8 °C 10 km+ - 150° 150° 3 kt METAR EFHK 212020Z 15003KT CAVOK 08/02 Q1025 NOSIG
22:50
V
8 °C 10 km+ - 130° 130° 3 kt METAR EFHK 211950Z 13003KT 090V160 CAVOK 08/02 Q1025 NOSIG
22:20
V
13 °C 10 km+ - 170° 170° 5 kt METAR EFHK 211920Z 17005KT CAVOK 13/M01 Q1025 NOSIG
21:50
V
14 °C 10 km+ - 160° 160° 5 kt METAR EFHK 211850Z 16005KT CAVOK 14/M00 Q1024 NOSIG
21:20
V
16 °C 10 km+ - 150° 150° 4 kt METAR EFHK 211820Z 15004KT 100V190 CAVOK 16/M00 Q1024 NOSIG
20:50
V
16 °C 10 km+ - 130° 130° 4 kt METAR EFHK 211750Z 13004KT 100V160 CAVOK 16/M01 Q1024 NOSIG
20:20
V
17 °C 10 km+ - 120° 120° 5 kt METAR EFHK 211720Z 12005KT CAVOK 17/M01 Q1024 NOSIG
19:50
V
17 °C 10 km+ - 140° 140° 5 kt METAR EFHK 211650Z 14005KT 100V170 CAVOK 17/M01 Q1024 NOSIG
19:20
V
17 °C 10 km+ - 140° 140° 6 kt METAR EFHK 211620Z 14006KT 120V180 CAVOK 17/M01 Q1024 NOSIG
18:50
V
18 °C 10 km+ - 140° 140° 5 kt METAR EFHK 211550Z 14005KT 100V190 CAVOK 18/M01 Q1024 NOSIG
18:20
V
18 °C 10 km+ - 140° 140° 8 kt METAR EFHK 211520Z 14008KT 110V190 CAVOK 18/00 Q1024 NOSIG
17:50
V
18 °C 10 km+ - 140° 140° 7 kt METAR EFHK 211450Z 14007KT 110V180 CAVOK 18/M00 Q1024 NOSIG
17:20
V
18 °C 10 km+ - 150° 150° 6 kt METAR EFHK 211420Z 15006KT 100V200 CAVOK 18/M01 Q1024 NOSIG
16:50
V
17 °C 10 km+ - 140° 140° 6 kt METAR EFHK 211350Z 14006KT 100V200 CAVOK 17/00 Q1024 NOSIG
16:20
V
18 °C 10 km+ - Var Var 4 kt METAR EFHK 211320Z VRB04KT CAVOK 18/00 Q1024 NOSIG
15:50
V
18 °C 10 km+ - 180° 180° 9 kt METAR EFHK 211250Z 18009KT 130V230 CAVOK 18/01 Q1024 NOSIG
15:20
V
18 °C 10 km+ - 150° 150° 9 kt METAR EFHK 211220Z 15009KT 100V190 CAVOK 18/01 Q1024 NOSIG
14:50
V
18 °C 10 km+ - 140° 140° 9 kt METAR EFHK 211150Z 14009KT 070V180 CAVOK 18/01 Q1025 NOSIG
14:20
V
18 °C 10 km+ - 010° 010° 6 kt METAR EFHK 211120Z 01006KT 310V100 CAVOK 18/M03 Q1025 BECMG TL1230 15010KT
13:50
V
17 °C 10 km+ - 360° 360° 8 kt METAR EFHK 211050Z 36008KT 320V040 CAVOK 17/M03 Q1025 BECMG TL1230 15010KT
13:20
V
17 °C 10 km+ - Var Var 3 kt METAR EFHK 211020Z VRB03KT CAVOK 17/M02 Q1025 BECMG TL1200 15010KT
12:50
V
17 °C 10 km+ - 090° 090° 4 kt METAR EFHK 210950Z 09004KT 020V170 CAVOK 17/M03 Q1025 BECMG 15010KT
12:20
V
17 °C 10 km+ - Var Var 6 kt METAR EFHK 210920Z VRB06KT CAVOK 17/M03 Q1025 NOSIG
11:50
V
16 °C 10 km+ - 060° 060° 7 kt METAR EFHK 210850Z 06007KT 010V140 CAVOK 16/M02 Q1025 NOSIG
11:20
V
16 °C 10 km+ - 050° 050° 6 kt METAR EFHK 210820Z 05006KT 030V110 CAVOK 16/M02 Q1025 NOSIG
10:50
V
15 °C 10 km+ - 030° 030° 6 kt METAR EFHK 210750Z 03006KT 330V080 CAVOK 15/M00 Q1025 NOSIG
10:20
V
15 °C 10 km+ - 060° 060° 7 kt METAR EFHK 210720Z 06007KT CAVOK 15/M00 Q1025 NOSIG
09:50
V
14 °C 10 km+ - 020° 020° 6 kt METAR EFHK 210650Z 02006KT 340V040 CAVOK 14/00 Q1025 NOSIG
09:20
V
13 °C 10 km+ - 030° 030° 7 kt METAR EFHK 210620Z 03007KT 360V060 CAVOK 13/00 Q1025 NOSIG
08:50
V
12 °C 10 km+ - 040° 040° 7 kt METAR EFHK 210550Z 04007KT 360V060 CAVOK 12/M00 Q1024 NOSIG
08:20
V
11 °C 10 km+ - 040° 040° 7 kt METAR EFHK 210520Z 04007KT CAVOK 11/M00 Q1024 NOSIG
07:50
V
10 °C 10 km+ - 040° 040° 8 kt METAR EFHK 210450Z 04008KT CAVOK 10/M00 Q1024 NOSIG
07:20
V
10 °C 10 km+ - 040° 040° 8 kt METAR EFHK 210420Z 04008KT CAVOK 10/00 Q1024 NOSIG
06:50
V
9 °C 10 km+ - 030° 030° 8 kt METAR EFHK 210350Z 03008KT CAVOK 09/M00 Q1024 NOSIG
06:20
V
8 °C 10 km+ - 020° 020° 7 kt METAR EFHK 210320Z 02007KT CAVOK 08/00 Q1024 NOSIG
05:50
V
8 °C 10 km+ - 020° 020° 8 kt METAR EFHK 210250Z 02008KT CAVOK 08/00 Q1023 NOSIG
05:20
V
7 °C 10 km+ - 020° 020° 7 kt METAR EFHK 210220Z 02007KT CAVOK 07/00 Q1023 NOSIG
04:50
V
7 °C 10 km+ - 020° 020° 5 kt METAR EFHK 210150Z 02005KT CAVOK 07/M00 Q1023 NOSIG
04:20
V
6 °C 10 km+ - 360° 360° 5 kt METAR EFHK 210120Z 36005KT CAVOK 06/M01 Q1023 NOSIG
03:50
V
5 °C 10 km+ - 350° 350° 7 kt METAR EFHK 210050Z 35007KT CAVOK 05/M01 Q1023 NOSIG
03:20
V
5 °C 10 km+ - 350° 350° 5 kt METAR EFHK 210020Z 35005KT CAVOK 05/M00 Q1022 NOSIG
02:50
V
6 °C 10 km+ - 360° 360° 5 kt METAR EFHK 202350Z 36005KT CAVOK 06/M00 Q1022 NOSIG
02:20
V
6 °C 10 km+ - Var Var 2 kt METAR EFHK 202320Z VRB02KT CAVOK 06/M01 Q1022 NOSIG
01:50
V
6 °C 10 km+ - 350° 350° 2 kt METAR EFHK 202250Z 35002KT CAVOK 06/M00 Q1022 NOSIG
01:20
V
7 °C 10 km+ - Var Var 2 kt METAR EFHK 202220Z VRB02KT CAVOK 07/M00 Q1022 NOSIG
00:50
V
8 °C 10 km+ - 020° 020° 4 kt METAR EFHK 202150Z 02004KT CAVOK 08/M00 Q1021 NOSIG
00:20
V
9 °C 10 km+ - 030° 030° 3 kt METAR EFHK 202120Z 03003KT 360V060 CAVOK 09/M01 Q1021 NOSIG

20 de mayo de 2024

Hora Código Tiempo Temp. Visibilidad Cielo nuboso Viento METAR/SPECI
23:50
V
9 °C 10 km+ - 020° 020° 5 kt METAR EFHK 202050Z 02005KT CAVOK 09/M01 Q1021 NOSIG
23:20
V
10 °C 10 km+ - 360° 360° 5 kt METAR EFHK 202020Z 36005KT CAVOK 10/M01 Q1020 NOSIG
22:50
V
8 °C 10 km+ - 350° 350° 5 kt METAR EFHK 201950Z 35005KT CAVOK 08/M00 Q1020 NOSIG
22:20
V
11 °C 10 km+ - 350° 350° 5 kt METAR EFHK 201920Z 35005KT CAVOK 11/M01 Q1020 NOSIG
21:50
V
13 °C 10 km+ - 340° 340° 5 kt METAR EFHK 201850Z 34005KT CAVOK 13/M03 Q1020 NOSIG
21:20
V
15 °C 10 km+ - 340° 340° 5 kt METAR EFHK 201820Z 34005KT CAVOK 15/M04 Q1020 NOSIG
20:50
V
16 °C 10 km+ - 340° 340° 6 kt METAR EFHK 201750Z 34006KT CAVOK 16/M04 Q1019 NOSIG
20:20
V
16 °C 10 km+ - 340° 340° 7 kt METAR EFHK 201720Z 34007KT CAVOK 16/M07 Q1019 NOSIG
19:50
V
17 °C 10 km+ - 330° 330° 9 kt METAR EFHK 201650Z 33009KT CAVOK 17/M07 Q1019 NOSIG
19:20
V
18 °C 10 km+ - 320° 320° 10 kt METAR EFHK 201620Z 32010KT CAVOK 18/M09 Q1019 NOSIG
18:50
V
18 °C 10 km+ - 340° 340° 11 kt METAR EFHK 201550Z 34011KT 310V010 CAVOK 18/M09 Q1018 NOSIG
18:20
V
18 °C 10 km+ - 330° 330° 9 kt METAR EFHK 201520Z 33009KT 290V020 CAVOK 18/M08 Q1018 NOSIG
17:50
V
19 °C 10 km+ - 320° 320° 10 kt METAR EFHK 201450Z 32010KT 260V360 CAVOK 19/M06 Q1018 NOSIG
17:20
V
19 °C 10 km+ - 350° 350° 9 kt METAR EFHK 201420Z 35009KT 320V030 CAVOK 19/M05 Q1018 NOSIG
Cambiar esta información